createdAt,value
2017-09-21T00:01:38.736Z,34.45
2017-09-21T00:04:05.503Z,31.95
2017-09-21T00:06:31.847Z,32.08
2017-09-21T00:08:58.215Z,31.15
2017-09-21T00:11:24.300Z,31.85
2017-09-21T00:13:50.365Z,30.12
2017-09-21T00:16:16.406Z,32.92
2017-09-21T00:18:43.159Z,29.30
2017-09-21T00:21:09.202Z,32.95
2017-09-21T00:23:35.219Z,30.15
2017-09-21T00:26:01.236Z,30.85
2017-09-21T00:28:27.318Z,30.62
2017-09-21T00:30:53.350Z,30.83
2017-09-21T00:33:19.413Z,31.62
2017-09-21T00:35:45.440Z,31.27
2017-09-21T00:38:11.466Z,32.57
2017-09-21T00:40:37.496Z,31.95
2017-09-21T00:43:03.571Z,33.53
2017-09-21T00:45:30.359Z,30.42
2017-09-21T00:47:56.399Z,33.87
2017-09-21T00:50:22.485Z,30.58
2017-09-21T00:52:48.498Z,33.67
2017-09-21T00:55:14.530Z,33.17
2017-09-21T00:57:40.591Z,34.35
2017-09-21T01:00:06.619Z,33.60
2017-09-21T01:02:32.673Z,34.53
2017-09-21T01:04:59.469Z,32.45
2017-09-21T01:07:25.501Z,35.25
2017-09-21T01:09:51.520Z,35.40
2017-09-21T01:12:17.915Z,35.20
2017-09-21T01:14:43.970Z,32.65
2017-09-21T01:17:10.011Z,31.12
2017-09-21T01:19:36.287Z,36.00
2017-09-21T01:22:02.309Z,31.80
2017-09-21T01:24:28.331Z,28.65
2017-09-21T01:26:56.073Z,31.17
2017-09-21T01:29:22.849Z,29.15
2017-09-21T01:31:54.971Z,29.95
2017-09-21T01:34:21.947Z,30.02
2017-09-21T01:36:47.995Z,29.30
2017-09-21T01:39:14.039Z,33.20
2017-09-21T01:41:40.109Z,32.95
2017-09-21T01:44:06.151Z,30.15
2017-09-21T01:46:32.161Z,31.92
2017-09-21T01:48:58.222Z,30.77
2017-09-21T01:51:24.266Z,29.67
2017-09-21T01:53:50.306Z,30.08
2017-09-21T01:56:17.367Z,28.60
2017-09-21T01:58:43.383Z,31.42
2017-09-21T02:01:09.402Z,33.88
2017-09-21T02:03:43.324Z,33.90
2017-09-21T02:06:09.356Z,29.60
2017-09-21T02:08:35.415Z,29.40
2017-09-21T02:11:01.454Z,29.25
2017-09-21T02:13:27.475Z,28.23
2017-09-21T02:15:53.786Z,28.70
2017-09-21T02:18:19.823Z,30.67
2017-09-21T02:20:45.863Z,31.40
2017-09-21T02:23:12.674Z,29.90
2017-09-21T02:25:38.710Z,29.52
2017-09-21T02:28:04.726Z,29.83
2017-09-21T02:30:30.786Z,28.65
2017-09-21T02:32:56.810Z,30.90
2017-09-21T02:35:22.837Z,29.02
2017-09-21T02:37:48.864Z,30.57
2017-09-21T02:40:14.886Z,30.70
2017-09-21T02:42:40.899Z,30.55
2017-09-21T02:45:06.947Z,30.10
2017-09-21T02:47:32.963Z,30.95
2017-09-21T02:49:59.038Z,31.70
2017-09-21T02:52:25.074Z,30.65
2017-09-21T02:54:51.838Z,32.60
2017-09-21T02:57:18.087Z,33.75
2017-09-21T02:59:44.094Z,31.12
2017-09-21T03:02:10.474Z,33.90
2017-09-21T03:04:36.849Z,35.00
2017-09-21T03:07:02.873Z,33.20
2017-09-21T03:09:28.902Z,31.33
2017-09-21T03:11:55.223Z,31.83
2017-09-21T03:14:21.255Z,31.53
2017-09-21T03:16:47.278Z,31.50
2017-09-21T03:19:13.358Z,32.70
2017-09-21T03:21:40.135Z,33.40
2017-09-21T03:24:06.153Z,33.90
2017-09-21T03:26:32.206Z,28.75
2017-09-21T03:28:58.216Z,31.27
2017-09-21T03:31:24.270Z,34.63
2017-09-21T03:33:50.315Z,34.72
2017-09-21T03:36:17.091Z,31.87
2017-09-21T03:38:43.106Z,34.70
2017-09-21T03:41:09.138Z,33.35
2017-09-21T03:43:35.158Z,33.22
2017-09-21T03:46:01.186Z,31.40
2017-09-21T03:48:27.562Z,35.30
2017-09-21T03:50:53.586Z,36.60
2017-09-21T03:53:19.626Z,38.22
2017-09-21T03:55:46.409Z,35.15
2017-09-21T03:58:12.449Z,36.53
2017-09-21T04:00:38.495Z,39.27
2017-09-21T04:03:04.578Z,36.08
2017-09-21T04:05:30.600Z,32.25
2017-09-21T04:07:56.636Z,38.08
2017-09-21T04:10:22.705Z,35.55
2017-09-21T04:12:49.472Z,39.25
2017-09-21T04:15:15.499Z,36.60
2017-09-21T04:17:41.545Z,41.50
2017-09-21T04:20:07.570Z,42.08
2017-09-21T04:22:33.596Z,38.08
2017-09-21T04:24:59.899Z,38.60
2017-09-21T04:27:25.929Z,36.90
2017-09-21T04:29:51.943Z,45.80
2017-09-21T04:32:17.982Z,42.30
2017-09-21T04:34:44.002Z,38.40
2017-09-21T04:37:10.022Z,36.53
2017-09-21T04:39:36.095Z,36.78
2017-09-21T04:42:02.871Z,39.03
2017-09-21T04:44:28.884Z,43.92
2017-09-21T04:46:55.115Z,38.75
2017-09-21T04:49:21.140Z,38.00
2017-09-21T04:51:47.162Z,41.17
2017-09-21T04:54:13.202Z,37.30
2017-09-21T04:56:39.247Z,39.60
2017-09-21T04:59:05.307Z,39.20
2017-09-21T05:01:31.348Z,40.95
2017-09-21T05:03:57.374Z,40.10
2017-09-21T05:06:23.458Z,41.25
2017-09-21T05:08:50.224Z,38.47
2017-09-21T05:11:16.245Z,43.10
2017-09-21T05:13:49.362Z,39.80
2017-09-21T05:16:15.383Z,42.10
2017-09-21T05:18:41.401Z,43.65
2017-09-21T05:21:07.722Z,44.67
2017-09-21T05:23:33.742Z,46.95
2017-09-21T05:25:59.758Z,47.58
2017-09-21T05:28:25.814Z,44.63
2017-09-21T05:30:51.883Z,45.47
2017-09-21T05:33:18.642Z,47.17
2017-09-21T05:35:44.864Z,50.55
2017-09-21T05:38:10.882Z,46.87
2017-09-21T05:40:36.931Z,48.60
2017-09-21T05:43:03.136Z,52.47
2017-09-21T05:45:29.150Z,46.92
2017-09-21T05:47:55.969Z,50.78
2017-09-21T05:50:22.334Z,51.55
2017-09-21T05:52:48.356Z,54.63
2017-09-21T05:55:14.383Z,53.60
2017-09-21T05:57:40.432Z,49.67
2017-09-21T06:00:06.483Z,52.28
2017-09-21T06:02:32.504Z,50.60
2017-09-21T06:04:58.556Z,53.97
2017-09-21T06:07:24.570Z,53.05
2017-09-21T06:09:51.335Z,49.65
2017-09-21T06:12:17.768Z,46.28
2017-09-21T06:14:43.827Z,48.00
2017-09-21T06:17:09.843Z,46.75
2017-09-21T06:19:35.866Z,46.83
2017-09-21T06:22:01.882Z,50.90
2017-09-21T06:24:27.906Z,53.42
2017-09-21T06:26:53.943Z,52.00
2017-09-21T06:29:19.964Z,53.13
2017-09-21T06:31:46.026Z,48.85
2017-09-21T06:34:12.250Z,52.67
2017-09-21T06:36:39.010Z,48.72
2017-09-21T06:39:05.035Z,51.13
2017-09-21T06:41:31.256Z,49.08
2017-09-21T06:43:57.307Z,56.00
2017-09-21T06:46:23.335Z,54.17
2017-09-21T06:48:49.635Z,51.83
2017-09-21T06:51:15.657Z,50.80
2017-09-21T06:53:41.699Z,53.00
2017-09-21T06:56:08.107Z,55.05
2017-09-21T06:58:34.138Z,56.60
2017-09-21T07:01:00.158Z,53.50
2017-09-21T07:03:26.250Z,54.78
2017-09-21T07:05:53.036Z,55.00
2017-09-21T07:08:19.098Z,49.10
2017-09-21T07:10:45.180Z,54.42
2017-09-21T07:13:11.226Z,58.10
2017-09-21T07:15:37.424Z,50.63
2017-09-21T07:18:03.442Z,56.47
2017-09-21T07:20:29.466Z,57.75
2017-09-21T07:22:55.564Z,50.58
2017-09-21T07:25:22.347Z,52.17
2017-09-21T07:27:48.368Z,51.58
2017-09-21T07:30:14.414Z,52.20
2017-09-21T07:32:40.443Z,54.65
2017-09-21T07:35:07.955Z,50.40
2017-09-21T07:37:34.011Z,53.03
2017-09-21T07:40:07.143Z,52.23
2017-09-21T07:42:33.159Z,51.72
2017-09-21T07:45:00.130Z,51.50
2017-09-21T07:47:26.171Z,53.38
2017-09-21T07:49:52.212Z,49.75
2017-09-21T07:52:18.264Z,56.53
2017-09-21T07:54:45.039Z,51.80
2017-09-21T07:57:11.063Z,53.10
2017-09-21T07:59:37.118Z,56.13
2017-09-21T08:02:03.142Z,56.75
2017-09-21T08:04:29.162Z,53.95
2017-09-21T08:06:55.352Z,51.35
2017-09-21T08:09:21.383Z,49.85
2017-09-21T08:11:47.390Z,46.88
2017-09-21T08:14:13.447Z,50.03
2017-09-21T08:16:39.465Z,48.90
2017-09-21T08:19:05.489Z,50.10
2017-09-21T08:21:31.511Z,48.53
2017-09-21T08:23:57.534Z,50.78
2017-09-21T08:26:23.938Z,48.13
2017-09-21T08:28:49.955Z,49.95
2017-09-21T08:31:15.988Z,66.18
2017-09-21T08:33:42.055Z,47.37
2017-09-21T08:36:08.084Z,55.60
2017-09-21T08:38:34.099Z,52.80
2017-09-21T08:41:00.183Z,51.88
2017-09-21T08:43:26.210Z,52.15
2017-09-21T08:45:52.242Z,53.15
2017-09-21T08:48:18.451Z,54.50
2017-09-21T08:50:44.466Z,50.23
2017-09-21T08:53:10.503Z,50.22
2017-09-21T08:55:36.549Z,48.80
2017-09-21T08:58:02.572Z,51.58
2017-09-21T09:00:28.588Z,44.67
2017-09-21T09:02:54.930Z,47.70
2017-09-21T09:05:21.735Z,39.92
2017-09-21T09:07:47.780Z,44.45
2017-09-21T09:10:20.831Z,39.78
2017-09-21T09:12:46.855Z,42.55
2017-09-21T09:15:12.886Z,40.75
2017-09-21T09:17:38.932Z,40.00
2017-09-21T09:20:04.967Z,50.15
2017-09-21T09:22:30.991Z,71.07
2017-09-21T09:24:57.275Z,47.10
2017-09-21T09:27:23.333Z,47.72
2017-09-21T09:29:49.345Z,44.60
2017-09-21T09:32:15.416Z,41.42
2017-09-21T09:34:42.199Z,39.97
2017-09-21T09:37:08.207Z,40.13
2017-09-21T09:39:34.251Z,34.10
2017-09-21T09:42:00.262Z,33.13
2017-09-21T09:44:26.282Z,32.17
2017-09-21T09:46:52.291Z,36.43
2017-09-21T09:49:18.308Z,37.28
2017-09-21T09:51:44.547Z,40.15
2017-09-21T09:54:10.569Z,37.35
2017-09-21T09:56:36.659Z,37.90
2017-09-21T09:59:03.454Z,37.85
2017-09-21T10:01:29.463Z,38.50
2017-09-21T10:03:55.487Z,40.05
2017-09-21T10:06:28.603Z,38.97
2017-09-21T10:08:54.611Z,40.65
2017-09-21T10:11:20.623Z,35.67
2017-09-21T10:13:46.654Z,33.70
2017-09-21T10:16:12.671Z,36.20
2017-09-21T10:18:38.686Z,36.70
2017-09-21T10:21:05.107Z,40.93
2017-09-21T10:23:31.106Z,38.80
2017-09-21T10:25:57.870Z,39.55
2017-09-21T10:28:24.300Z,40.30
2017-09-21T10:30:50.323Z,36.70
2017-09-21T10:33:16.368Z,36.75
2017-09-21T10:35:42.399Z,39.88
2017-09-21T10:38:08.407Z,40.80
2017-09-21T10:40:34.426Z,32.25
2017-09-21T10:43:00.756Z,31.53
2017-09-21T10:45:26.767Z,36.90
2017-09-21T10:47:52.787Z,30.67
2017-09-21T10:50:18.840Z,32.58
2017-09-21T10:52:44.880Z,31.50
2017-09-21T10:55:10.894Z,35.28
2017-09-21T10:57:37.078Z,31.95
2017-09-21T11:00:03.107Z,31.17
2017-09-21T11:02:29.118Z,28.52
2017-09-21T11:04:55.142Z,31.60
2017-09-21T11:07:21.176Z,30.35
2017-09-21T11:09:47.195Z,28.03
2017-09-21T11:12:13.518Z,30.12
2017-09-21T11:14:39.547Z,34.55
2017-09-21T11:17:05.586Z,23.15
2017-09-21T11:19:31.616Z,21.15
2017-09-21T11:21:57.671Z,24.58
2017-09-21T11:24:24.480Z,23.55
2017-09-21T11:26:50.785Z,19.50
2017-09-21T11:29:16.808Z,19.77
2017-09-21T11:31:42.837Z,16.37
2017-09-21T11:34:09.046Z,17.05
2017-09-21T11:36:35.081Z,18.80
2017-09-21T11:39:01.114Z,23.98
2017-09-21T11:41:27.530Z,18.60
2017-09-21T11:43:53.559Z,17.75
2017-09-21T11:46:19.584Z,24.52
2017-09-21T11:48:45.831Z,19.23
2017-09-21T11:51:11.860Z,18.23
2017-09-21T11:53:37.889Z,18.35
2017-09-21T11:56:04.738Z,17.12
2017-09-21T11:58:31.019Z,19.05
2017-09-21T12:00:57.067Z,16.00
2017-09-21T12:03:23.120Z,16.80
2017-09-21T12:05:50.518Z,16.48
2017-09-21T12:08:16.530Z,19.45
2017-09-21T12:10:42.542Z,16.87
2017-09-21T12:13:08.806Z,16.48
2017-09-21T12:15:34.853Z,17.75
2017-09-21T12:18:00.921Z,22.30
2017-09-21T12:20:27.682Z,23.00
2017-09-21T12:22:53.731Z,21.12
2017-09-21T12:25:19.771Z,21.97
2017-09-21T12:27:45.836Z,17.98
2017-09-21T12:30:11.856Z,21.83
2017-09-21T12:32:37.879Z,18.55
2017-09-21T12:35:03.900Z,20.60
2017-09-21T12:37:29.930Z,15.70
2017-09-21T12:39:55.947Z,16.63
2017-09-21T12:42:22.093Z,18.92
2017-09-21T12:44:48.138Z,19.20
2017-09-21T12:47:14.151Z,15.55
2017-09-21T12:49:40.179Z,15.40
2017-09-21T12:52:06.211Z,15.25
2017-09-21T12:54:32.227Z,18.37
2017-09-21T12:56:58.283Z,17.73
2017-09-21T12:59:25.047Z,18.05
2017-09-21T13:01:51.070Z,13.05
2017-09-21T13:04:17.294Z,15.77
2017-09-21T13:06:43.319Z,25.75
2017-09-21T13:09:09.337Z,20.50
2017-09-21T13:11:35.584Z,19.35
2017-09-21T13:14:01.602Z,17.33
2017-09-21T13:16:27.619Z,18.55
2017-09-21T13:18:53.639Z,14.27
2017-09-21T13:21:19.778Z,23.80
2017-09-21T13:23:45.799Z,21.20
2017-09-21T13:26:11.819Z,17.85
2017-09-21T13:28:37.875Z,15.50
2017-09-21T13:31:03.903Z,16.12
2017-09-21T13:33:29.935Z,15.20
2017-09-21T13:35:56.914Z,17.55
2017-09-21T13:38:22.922Z,23.42
2017-09-21T13:40:48.982Z,23.50
2017-09-21T13:43:15.277Z,25.90
2017-09-21T13:45:41.298Z,24.90
2017-09-21T13:48:07.313Z,19.30
2017-09-21T13:50:34.104Z,17.05
2017-09-21T13:53:00.114Z,19.60
2017-09-21T13:55:26.151Z,24.60
2017-09-21T13:57:52.340Z,26.35
2017-09-21T14:00:18.363Z,20.27
2017-09-21T14:02:44.380Z,18.45
2017-09-21T14:05:10.602Z,24.33
2017-09-21T14:07:36.619Z,22.00
2017-09-21T14:10:03.374Z,17.30
2017-09-21T14:12:29.591Z,20.52
2017-09-21T14:14:55.608Z,19.35
2017-09-21T14:17:21.631Z,17.92
2017-09-21T14:19:47.701Z,19.17
2017-09-21T14:22:13.726Z,18.27
2017-09-21T14:24:39.762Z,16.08
2017-09-21T14:27:06.247Z,18.33
2017-09-21T14:29:32.270Z,23.95
2017-09-21T14:31:58.291Z,22.30
2017-09-21T14:34:24.346Z,28.85
2017-09-21T14:36:50.412Z,23.02
2017-09-21T14:39:17.187Z,22.70
2017-09-21T14:41:43.214Z,18.77
2017-09-21T14:44:09.317Z,16.12
2017-09-21T14:46:35.355Z,18.33
2017-09-21T14:49:01.571Z,17.95
2017-09-21T14:51:27.599Z,20.40
2017-09-21T14:53:53.609Z,26.42
2017-09-21T14:56:19.887Z,22.67
2017-09-21T14:58:52.994Z,21.07
2017-09-21T15:01:19.156Z,25.25
2017-09-21T15:03:45.179Z,21.15
2017-09-21T15:06:11.215Z,18.40
2017-09-21T15:08:37.247Z,16.95
2017-09-21T15:11:03.262Z,20.00
2017-09-21T15:13:29.274Z,18.60
2017-09-21T15:15:55.294Z,12.77
2017-09-21T15:18:21.302Z,14.68
2017-09-21T15:20:47.307Z,13.05
2017-09-21T15:23:14.079Z,13.00
2017-09-21T15:25:40.102Z,14.60
2017-09-21T15:28:06.116Z,15.43
2017-09-21T15:30:32.179Z,15.07
2017-09-21T15:32:58.218Z,10.18
2017-09-21T15:35:24.239Z,15.75
2017-09-21T15:37:50.614Z,14.52
2017-09-21T15:40:16.639Z,15.20
2017-09-21T15:42:42.646Z,11.93
2017-09-21T15:45:08.886Z,10.80
2017-09-21T15:47:34.899Z,11.50
2017-09-21T15:50:00.922Z,12.48
2017-09-21T15:52:26.954Z,13.48
2017-09-21T15:54:52.983Z,11.27
2017-09-21T15:57:18.997Z,10.20
2017-09-21T15:59:45.331Z,13.57
2017-09-21T16:02:11.359Z,10.65
2017-09-21T16:04:37.378Z,12.37
2017-09-21T16:07:03.410Z,12.00
2017-09-21T16:09:29.423Z,10.55
2017-09-21T16:11:55.467Z,12.82
2017-09-21T16:14:22.239Z,10.23
2017-09-21T16:16:48.271Z,10.60
2017-09-21T16:19:15.063Z,14.60
2017-09-21T16:21:41.071Z,10.80
2017-09-21T16:24:07.110Z,9.52
2017-09-21T16:26:33.206Z,12.52
2017-09-21T16:28:59.229Z,12.43
2017-09-21T16:31:25.242Z,12.50
2017-09-21T16:33:51.585Z,11.50
2017-09-21T16:36:17.618Z,12.60
2017-09-21T16:38:43.657Z,13.70
2017-09-21T16:41:09.727Z,12.13
2017-09-21T16:43:36.508Z,14.30
2017-09-21T16:46:02.790Z,9.27
2017-09-21T16:48:29.561Z,16.48
2017-09-21T16:50:55.890Z,14.93
2017-09-21T16:53:21.915Z,10.50
2017-09-21T16:55:47.930Z,13.62
2017-09-21T16:58:14.234Z,15.15
2017-09-21T17:00:41.011Z,16.45
2017-09-21T17:03:07.035Z,14.85
2017-09-21T17:05:33.249Z,20.05
2017-09-21T17:07:59.267Z,12.13
2017-09-21T17:10:25.298Z,13.30
2017-09-21T17:12:51.526Z,12.70
2017-09-21T17:15:17.557Z,16.62
2017-09-21T17:17:43.604Z,21.98
2017-09-21T17:20:09.807Z,18.50
2017-09-21T17:22:35.832Z,16.73
2017-09-21T17:25:01.855Z,21.10
2017-09-21T17:27:28.031Z,19.10
2017-09-21T17:29:54.089Z,19.58
2017-09-21T17:32:20.119Z,21.15
2017-09-21T17:34:46.347Z,17.77
2017-09-21T17:37:12.367Z,20.23
2017-09-21T17:39:38.388Z,19.45
2017-09-21T17:42:04.439Z,19.08
2017-09-21T17:44:30.460Z,24.30
2017-09-21T17:46:56.757Z,17.83
2017-09-21T17:49:22.813Z,23.73
2017-09-21T17:51:48.830Z,18.50
2017-09-21T17:54:14.839Z,21.63
2017-09-21T17:56:40.892Z,20.55
2017-09-21T17:59:06.915Z,18.27
2017-09-21T18:01:32.983Z,18.50
2017-09-21T18:03:59.282Z,21.85
2017-09-21T18:06:25.307Z,20.85
2017-09-21T18:08:51.351Z,16.85
2017-09-21T18:11:18.135Z,21.70
2017-09-21T18:13:44.146Z,20.35
2017-09-21T18:16:10.175Z,21.05
2017-09-21T18:18:36.199Z,21.67
2017-09-21T18:21:02.305Z,19.67
2017-09-21T18:23:28.408Z,21.17
2017-09-21T18:25:54.517Z,19.23
2017-09-21T18:28:21.336Z,19.08
2017-09-21T18:30:48.900Z,21.67
2017-09-21T18:33:15.011Z,21.73
2017-09-21T18:35:41.116Z,19.45
2017-09-21T18:38:07.197Z,20.80
2017-09-21T18:40:34.247Z,20.77
2017-09-21T18:43:00.346Z,21.40
2017-09-21T18:45:27.209Z,23.45
2017-09-21T18:47:54.114Z,25.10
2017-09-21T18:50:20.973Z,21.20
2017-09-21T18:52:47.766Z,26.20
2017-09-21T18:55:13.886Z,22.60
2017-09-21T18:57:39.973Z,26.05
2017-09-21T19:00:06.034Z,24.65
2017-09-21T19:02:32.171Z,21.52
2017-09-21T19:04:58.272Z,21.90
2017-09-21T19:07:24.377Z,28.52
2017-09-21T19:09:51.335Z,24.25
2017-09-21T19:12:17.394Z,30.35
2017-09-21T19:14:43.516Z,20.85
2017-09-21T19:17:09.689Z,24.70
2017-09-21T19:19:36.638Z,22.92
2017-09-21T19:22:03.515Z,21.00
2017-09-21T19:24:29.562Z,23.10
2017-09-21T19:26:55.704Z,25.75
2017-09-21T19:29:22.551Z,27.10
2017-09-21T19:31:49.405Z,23.20
2017-09-21T19:34:16.310Z,24.50
2017-09-21T19:36:42.398Z,24.75
2017-09-21T19:39:08.487Z,22.83
2017-09-21T19:41:35.405Z,22.17
2017-09-21T19:44:01.504Z,23.30
2017-09-21T19:46:27.605Z,27.13
2017-09-21T19:48:53.727Z,20.45
2017-09-21T19:51:19.819Z,25.90
2017-09-21T19:53:45.918Z,29.30
2017-09-21T19:56:12.291Z,24.48
2017-09-21T19:58:39.142Z,24.20
2017-09-21T20:01:06.546Z,23.17
2017-09-21T20:03:32.891Z,22.17
2017-09-21T20:05:58.926Z,22.52
2017-09-21T20:08:24.977Z,23.67
2017-09-21T20:10:51.853Z,22.52
2017-09-21T20:13:17.876Z,20.67
2017-09-21T20:15:43.957Z,26.42
2017-09-21T20:18:10.723Z,22.87
2017-09-21T20:20:36.756Z,22.13
2017-09-21T20:23:02.797Z,25.35
2017-09-21T20:25:28.832Z,25.85
2017-09-21T20:27:54.860Z,24.67
2017-09-21T20:30:20.910Z,23.25
2017-09-21T20:32:47.676Z,23.58
2017-09-21T20:35:13.710Z,22.92
2017-09-21T20:37:39.924Z,25.83
2017-09-21T20:40:05.948Z,28.23
2017-09-21T20:42:32.010Z,27.62
2017-09-21T20:44:58.067Z,27.37
2017-09-21T20:47:24.824Z,25.70
2017-09-21T20:49:50.874Z,28.85
2017-09-21T20:52:16.950Z,25.60
2017-09-21T20:54:43.716Z,27.20
2017-09-21T20:57:09.739Z,27.65
2017-09-21T20:59:35.757Z,27.90
2017-09-21T21:02:01.805Z,23.27
2017-09-21T21:04:28.130Z,26.07
2017-09-21T21:06:54.155Z,25.00
2017-09-21T21:09:20.166Z,24.50
2017-09-21T21:11:46.503Z,24.58
2017-09-21T21:14:12.547Z,28.12
2017-09-21T21:16:38.663Z,26.57
2017-09-21T21:19:04.699Z,27.08
2017-09-21T21:21:30.766Z,28.65
2017-09-21T21:23:56.805Z,26.52
2017-09-21T21:26:23.043Z,26.00
2017-09-21T21:28:49.063Z,28.83
2017-09-21T21:31:15.106Z,24.90
2017-09-21T21:33:41.174Z,25.70
2017-09-21T21:36:07.963Z,27.77
2017-09-21T21:38:33.997Z,30.80
2017-09-21T21:41:00.063Z,28.48
2017-09-21T21:43:26.815Z,28.85
2017-09-21T21:45:52.856Z,27.80
2017-09-21T21:48:18.915Z,28.00
2017-09-21T21:50:44.955Z,28.75
2017-09-21T21:53:10.957Z,31.87
2017-09-21T21:55:36.970Z,26.62
2017-09-21T21:58:03.006Z,25.50
2017-09-21T22:00:29.039Z,29.42
2017-09-21T22:02:55.063Z,30.10
2017-09-21T22:05:21.342Z,25.55
2017-09-21T22:07:47.364Z,28.23
2017-09-21T22:10:13.386Z,27.10
2017-09-21T22:12:39.407Z,25.60
2017-09-21T22:15:05.459Z,29.02
2017-09-21T22:17:31.531Z,27.92
2017-09-21T22:19:58.286Z,27.83
2017-09-21T22:22:24.326Z,28.27
2017-09-21T22:24:50.541Z,29.80
2017-09-21T22:27:16.569Z,28.87
2017-09-21T22:29:42.611Z,30.00
2017-09-21T22:32:08.640Z,28.52
2017-09-21T22:34:34.711Z,28.17
2017-09-21T22:37:00.718Z,29.60
2017-09-21T22:39:27.499Z,31.50
2017-09-21T22:41:53.556Z,29.70
2017-09-21T22:44:19.585Z,30.75
2017-09-21T22:46:45.606Z,31.03
2017-09-21T22:49:11.666Z,27.60
2017-09-21T22:51:37.686Z,30.10
2017-09-21T22:54:04.448Z,31.92
2017-09-21T22:56:30.547Z,28.17
2017-09-21T22:58:57.310Z,30.42
2017-09-21T23:01:23.343Z,33.03
2017-09-21T23:03:49.566Z,29.77
2017-09-21T23:06:15.586Z,31.05
2017-09-21T23:08:41.663Z,26.12
2017-09-21T23:11:08.154Z,30.50
2017-09-21T23:13:41.167Z,30.00
2017-09-21T23:16:07.452Z,28.02
2017-09-21T23:18:33.469Z,29.77
2017-09-21T23:20:59.507Z,25.10
2017-09-21T23:23:25.554Z,25.60
2017-09-21T23:25:51.571Z,29.17
2017-09-21T23:28:17.614Z,25.77
2017-09-21T23:30:43.642Z,32.80
2017-09-21T23:33:09.667Z,28.83
2017-09-21T23:35:35.698Z,29.15
2017-09-21T23:38:02.450Z,28.17
2017-09-21T23:40:29.226Z,29.02
2017-09-21T23:42:55.264Z,29.83
2017-09-21T23:45:21.290Z,31.65
2017-09-21T23:47:47.309Z,29.17
2017-09-21T23:50:13.622Z,29.12
2017-09-21T23:52:39.638Z,33.50
2017-09-21T23:55:07.171Z,32.00
2017-09-21T23:57:33.229Z,27.55
2017-09-21T23:59:59.293Z,30.05
